sensor_id;sensor_type;location;lat;lon;timestamp;P1;durP1;ratioP1;P2;durP2;ratioP2
5995;SDS011;3026;53.612;7.278;2024-02-14T00:01:16;5.27;;;3.17;;
5995;SDS011;3026;53.612;7.278;2024-02-14T00:03:44;6.50;;;3.90;;
5995;SDS011;3026;53.612;7.278;2024-02-14T00:06:11;6.97;;;3.97;;
5995;SDS011;3026;53.612;7.278;2024-02-14T00:08:38;8.90;;;4.23;;
5995;SDS011;3026;53.612;7.278;2024-02-14T00:11:06;9.30;;;3.37;;
5995;SDS011;3026;53.612;7.278;2024-02-14T00:13:33;4.90;;;3.73;;
5995;SDS011;3026;53.612;7.278;2024-02-14T00:16:00;8.47;;;4.30;;
5995;SDS011;3026;53.612;7.278;2024-02-14T00:18:29;7.53;;;3.90;;
5995;SDS011;3026;53.612;7.278;2024-02-14T00:20:57;5.83;;;3.50;;
5995;SDS011;3026;53.612;7.278;2024-02-14T00:23:25;8.77;;;4.03;;
5995;SDS011;3026;53.612;7.278;2024-02-14T00:25:53;6.10;;;4.13;;
5995;SDS011;3026;53.612;7.278;2024-02-14T00:28:21;5.03;;;4.10;;
5995;SDS011;3026;53.612;7.278;2024-02-14T00:30:52;5.13;;;4.00;;
5995;SDS011;3026;53.612;7.278;2024-02-14T00:33:19;6.87;;;3.80;;
5995;SDS011;3026;53.612;7.278;2024-02-14T00:35:49;7.77;;;4.10;;
5995;SDS011;3026;53.612;7.278;2024-02-14T00:38:17;8.63;;;4.23;;
5995;SDS011;3026;53.612;7.278;2024-02-14T00:40:44;5.87;;;4.37;;
5995;SDS011;3026;53.612;7.278;2024-02-14T00:43:12;6.13;;;4.00;;
5995;SDS011;3026;53.612;7.278;2024-02-14T00:45:40;7.37;;;3.97;;
5995;SDS011;3026;53.612;7.278;2024-02-14T00:48:08;7.10;;;4.03;;
5995;SDS011;3026;53.612;7.278;2024-02-14T00:50:35;5.40;;;4.40;;
5995;SDS011;3026;53.612;7.278;2024-02-14T00:53:06;5.53;;;3.63;;
5995;SDS011;3026;53.612;7.278;2024-02-14T00:55:33;8.43;;;4.90;;
5995;SDS011;3026;53.612;7.278;2024-02-14T00:58:01;7.40;;;4.40;;
5995;SDS011;3026;53.612;7.278;2024-02-14T01:00:29;8.50;;;5.53;;
5995;SDS011;3026;53.612;7.278;2024-02-14T01:02:57;5.70;;;4.63;;
5995;SDS011;3026;53.612;7.278;2024-02-14T01:05:24;6.57;;;4.60;;
5995;SDS011;3026;53.612;7.278;2024-02-14T01:07:52;8.27;;;5.03;;
5995;SDS011;3026;53.612;7.278;2024-02-14T01:10:21;6.13;;;5.43;;
5995;SDS011;3026;53.612;7.278;2024-02-14T01:12:51;7.43;;;4.53;;
5995;SDS011;3026;53.612;7.278;2024-02-14T01:15:18;8.33;;;4.93;;
5995;SDS011;3026;53.612;7.278;2024-02-14T01:17:47;6.87;;;4.90;;
5995;SDS011;3026;53.612;7.278;2024-02-14T01:20:14;8.20;;;4.67;;
5995;SDS011;3026;53.612;7.278;2024-02-14T01:22:42;5.33;;;4.67;;
5995;SDS011;3026;53.612;7.278;2024-02-14T01:25:16;8.17;;;5.13;;
5995;SDS011;3026;53.612;7.278;2024-02-14T01:27:45;8.67;;;4.47;;
5995;SDS011;3026;53.612;7.278;2024-02-14T01:30:14;8.87;;;5.23;;
5995;SDS011;3026;53.612;7.278;2024-02-14T01:32:42;7.93;;;5.40;;
5995;SDS011;3026;53.612;7.278;2024-02-14T01:35:10;7.73;;;5.17;;
5995;SDS011;3026;53.612;7.278;2024-02-14T01:37:38;6.47;;;5.30;;
5995;SDS011;3026;53.612;7.278;2024-02-14T01:40:06;6.43;;;5.23;;
5995;SDS011;3026;53.612;7.278;2024-02-14T01:42:34;5.83;;;5.13;;
5995;SDS011;3026;53.612;7.278;2024-02-14T01:45:04;8.57;;;5.60;;
5995;SDS011;3026;53.612;7.278;2024-02-14T01:47:32;7.17;;;5.80;;
5995;SDS011;3026;53.612;7.278;2024-02-14T01:50:06;7.00;;;5.57;;
5995;SDS011;3026;53.612;7.278;2024-02-14T01:52:36;9.47;;;5.93;;
5995;SDS011;3026;53.612;7.278;2024-02-14T01:55:05;8.90;;;6.13;;
5995;SDS011;3026;53.612;7.278;2024-02-14T01:57:35;8.13;;;5.87;;
5995;SDS011;3026;53.612;7.278;2024-02-14T02:00:06;7.90;;;6.27;;
5995;SDS011;3026;53.612;7.278;2024-02-14T02:02:34;8.80;;;6.23;;
5995;SDS011;3026;53.612;7.278;2024-02-14T02:05:05;11.10;;;6.70;;
5995;SDS011;3026;53.612;7.278;2024-02-14T02:07:33;8.87;;;6.97;;
5995;SDS011;3026;53.612;7.278;2024-02-14T02:10:00;9.17;;;7.10;;
5995;SDS011;3026;53.612;7.278;2024-02-14T02:12:29;10.67;;;6.90;;
5995;SDS011;3026;53.612;7.278;2024-02-14T02:14:58;10.57;;;7.80;;
5995;SDS011;3026;53.612;7.278;2024-02-14T02:17:26;8.87;;;7.20;;
5995;SDS011;3026;53.612;7.278;2024-02-14T02:19:54;9.43;;;7.40;;
5995;SDS011;3026;53.612;7.278;2024-02-14T02:22:23;10.23;;;6.63;;
5995;SDS011;3026;53.612;7.278;2024-02-14T02:24:51;10.27;;;7.67;;
5995;SDS011;3026;53.612;7.278;2024-02-14T02:27:18;8.93;;;7.03;;
5995;SDS011;3026;53.612;7.278;2024-02-14T02:29:46;7.83;;;6.77;;
5995;SDS011;3026;53.612;7.278;2024-02-14T02:32:13;8.53;;;7.13;;
5995;SDS011;3026;53.612;7.278;2024-02-14T02:34:41;9.17;;;7.67;;
5995;SDS011;3026;53.612;7.278;2024-02-14T02:37:10;10.57;;;7.63;;
5995;SDS011;3026;53.612;7.278;2024-02-14T02:39:38;9.37;;;7.90;;
5995;SDS011;3026;53.612;7.278;2024-02-14T02:42:06;9.10;;;8.20;;
5995;SDS011;3026;53.612;7.278;2024-02-14T02:44:41;9.33;;;7.87;;
5995;SDS011;3026;53.612;7.278;2024-02-14T02:47:09;11.00;;;8.17;;
5995;SDS011;3026;53.612;7.278;2024-02-14T02:49:38;9.33;;;7.97;;
5995;SDS011;3026;53.612;7.278;2024-02-14T02:52:05;10.83;;;7.83;;
5995;SDS011;3026;53.612;7.278;2024-02-14T02:54:34;8.97;;;7.80;;
5995;SDS011;3026;53.612;7.278;2024-02-14T02:57:01;8.87;;;7.70;;
5995;SDS011;3026;53.612;7.278;2024-02-14T02:59:30;9.43;;;8.50;;
5995;SDS011;3026;53.612;7.278;2024-02-14T03:01:58;10.50;;;7.80;;
5995;SDS011;3026;53.612;7.278;2024-02-14T03:04:25;10.13;;;8.70;;
5995;SDS011;3026;53.612;7.278;2024-02-14T03:06:52;9.17;;;8.20;;
5995;SDS011;3026;53.612;7.278;2024-02-14T03:09:19;9.80;;;8.53;;
5995;SDS011;3026;53.612;7.278;2024-02-14T03:11:48;9.40;;;8.40;;
5995;SDS011;3026;53.612;7.278;2024-02-14T03:14:16;10.93;;;8.57;;
5995;SDS011;3026;53.612;7.278;2024-02-14T03:16:45;8.97;;;8.03;;
5995;SDS011;3026;53.612;7.278;2024-02-14T03:19:12;9.37;;;8.27;;
5995;SDS011;3026;53.612;7.278;2024-02-14T03:21:39;10.00;;;8.80;;
5995;SDS011;3026;53.612;7.278;2024-02-14T03:24:08;9.53;;;8.20;;
5995;SDS011;3026;53.612;7.278;2024-02-14T03:26:36;9.10;;;7.93;;
5995;SDS011;3026;53.612;7.278;2024-02-14T03:29:03;11.77;;;8.83;;
5995;SDS011;3026;53.612;7.278;2024-02-14T03:31:31;11.30;;;9.10;;
5995;SDS011;3026;53.612;7.278;2024-02-14T03:34:01;9.60;;;8.60;;
5995;SDS011;3026;53.612;7.278;2024-02-14T03:36:28;9.33;;;8.40;;
5995;SDS011;3026;53.612;7.278;2024-02-14T03:38:56;10.47;;;9.13;;
5995;SDS011;3026;53.612;7.278;2024-02-14T03:41:24;10.37;;;8.97;;
5995;SDS011;3026;53.612;7.278;2024-02-14T03:43:52;9.67;;;8.67;;
5995;SDS011;3026;53.612;7.278;2024-02-14T03:46:24;9.97;;;8.83;;
5995;SDS011;3026;53.612;7.278;2024-02-14T03:48:52;9.47;;;8.13;;
5995;SDS011;3026;53.612;7.278;2024-02-14T03:51:22;9.73;;;8.40;;
5995;SDS011;3026;53.612;7.278;2024-02-14T03:53:50;9.60;;;7.97;;
5995;SDS011;3026;53.612;7.278;2024-02-14T03:56:17;9.50;;;8.57;;
5995;SDS011;3026;53.612;7.278;2024-02-14T03:58:44;10.53;;;8.17;;
5995;SDS011;3026;53.612;7.278;2024-02-14T04:01:16;8.37;;;7.50;;
5995;SDS011;3026;53.612;7.278;2024-02-14T04:03:43;8.63;;;7.70;;
5995;SDS011;3026;53.612;7.278;2024-02-14T04:06:13;9.53;;;7.70;;
5995;SDS011;3026;53.612;7.278;2024-02-14T04:08:42;8.30;;;7.40;;
5995;SDS011;3026;53.612;7.278;2024-02-14T04:11:09;7.90;;;7.00;;
5995;SDS011;3026;53.612;7.278;2024-02-14T04:13:38;8.23;;;6.93;;
5995;SDS011;3026;53.612;7.278;2024-02-14T04:16:06;8.27;;;7.47;;
5995;SDS011;3026;53.612;7.278;2024-02-14T04:18:33;7.57;;;6.73;;
5995;SDS011;3026;53.612;7.278;2024-02-14T04:21:00;8.03;;;7.23;;
5995;SDS011;3026;53.612;7.278;2024-02-14T04:23:29;7.53;;;6.50;;
5995;SDS011;3026;53.612;7.278;2024-02-14T04:25:59;7.53;;;6.60;;
5995;SDS011;3026;53.612;7.278;2024-02-14T04:28:26;6.00;;;5.40;;
5995;SDS011;3026;53.612;7.278;2024-02-14T04:30:53;7.23;;;6.53;;
5995;SDS011;3026;53.612;7.278;2024-02-14T04:33:21;8.77;;;5.90;;
5995;SDS011;3026;53.612;7.278;2024-02-14T04:35:49;5.70;;;5.07;;
5995;SDS011;3026;53.612;7.278;2024-02-14T04:38:16;6.37;;;5.43;;
5995;SDS011;3026;53.612;7.278;2024-02-14T04:40:45;6.50;;;5.77;;
5995;SDS011;3026;53.612;7.278;2024-02-14T04:43:13;6.20;;;5.60;;
5995;SDS011;3026;53.612;7.278;2024-02-14T04:45:41;5.90;;;5.30;;
5995;SDS011;3026;53.612;7.278;2024-02-14T04:48:10;5.13;;;4.70;;
5995;SDS011;3026;53.612;7.278;2024-02-14T04:50:37;6.00;;;5.40;;
5995;SDS011;3026;53.612;7.278;2024-02-14T04:53:04;5.63;;;5.13;;
5995;SDS011;3026;53.612;7.278;2024-02-14T04:55:32;4.90;;;4.40;;
5995;SDS011;3026;53.612;7.278;2024-02-14T04:58:00;5.03;;;4.53;;
5995;SDS011;3026;53.612;7.278;2024-02-14T05:00:28;5.50;;;4.90;;
5995;SDS011;3026;53.612;7.278;2024-02-14T05:02:56;4.47;;;4.07;;
5995;SDS011;3026;53.612;7.278;2024-02-14T05:05:23;4.50;;;4.10;;
5995;SDS011;3026;53.612;7.278;2024-02-14T05:07:52;4.93;;;4.43;;
5995;SDS011;3026;53.612;7.278;2024-02-14T05:10:25;4.60;;;4.20;;
5995;SDS011;3026;53.612;7.278;2024-02-14T05:12:52;5.23;;;4.70;;
5995;SDS011;3026;53.612;7.278;2024-02-14T05:15:19;4.70;;;4.30;;
5995;SDS011;3026;53.612;7.278;2024-02-14T05:17:49;4.53;;;3.93;;
5995;SDS011;3026;53.612;7.278;2024-02-14T05:20:17;4.07;;;3.67;;
5995;SDS011;3026;53.612;7.278;2024-02-14T05:22:46;5.03;;;4.53;;
5995;SDS011;3026;53.612;7.278;2024-02-14T05:25:18;4.73;;;4.23;;
5995;SDS011;3026;53.612;7.278;2024-02-14T05:27:45;4.77;;;4.30;;
5995;SDS011;3026;53.612;7.278;2024-02-14T05:30:13;4.70;;;4.30;;
5995;SDS011;3026;53.612;7.278;2024-02-14T05:32:40;4.00;;;3.70;;
5995;SDS011;3026;53.612;7.278;2024-02-14T05:35:09;4.43;;;4.07;;
5995;SDS011;3026;53.612;7.278;2024-02-14T05:37:35;4.90;;;3.80;;
5995;SDS011;3026;53.612;7.278;2024-02-14T05:40:07;4.40;;;4.00;;
5995;SDS011;3026;53.612;7.278;2024-02-14T05:42:34;4.93;;;4.53;;
5995;SDS011;3026;53.612;7.278;2024-02-14T05:45:02;4.50;;;4.10;;
5995;SDS011;3026;53.612;7.278;2024-02-14T05:47:30;4.80;;;4.40;;
5995;SDS011;3026;53.612;7.278;2024-02-14T05:49:57;4.10;;;3.73;;
5995;SDS011;3026;53.612;7.278;2024-02-14T05:52:26;4.63;;;4.10;;
5995;SDS011;3026;53.612;7.278;2024-02-14T05:54:54;4.40;;;4.00;;
5995;SDS011;3026;53.612;7.278;2024-02-14T05:57:21;4.90;;;4.40;;
5995;SDS011;3026;53.612;7.278;2024-02-14T05:59:50;5.17;;;4.43;;
5995;SDS011;3026;53.612;7.278;2024-02-14T06:02:18;4.53;;;4.13;;
5995;SDS011;3026;53.612;7.278;2024-02-14T06:04:47;4.50;;;4.10;;
5995;SDS011;3026;53.612;7.278;2024-02-14T06:07:14;5.00;;;4.50;;
5995;SDS011;3026;53.612;7.278;2024-02-14T06:09:43;4.70;;;4.30;;
5995;SDS011;3026;53.612;7.278;2024-02-14T06:12:10;4.60;;;4.20;;
5995;SDS011;3026;53.612;7.278;2024-02-14T06:14:38;4.77;;;4.37;;
5995;SDS011;3026;53.612;7.278;2024-02-14T06:17:04;4.30;;;3.90;;
5995;SDS011;3026;53.612;7.278;2024-02-14T06:19:32;4.67;;;4.27;;
5995;SDS011;3026;53.612;7.278;2024-02-14T06:22:00;4.30;;;3.90;;
5995;SDS011;3026;53.612;7.278;2024-02-14T06:24:27;3.93;;;3.63;;
5995;SDS011;3026;53.612;7.278;2024-02-14T06:26:56;4.37;;;3.97;;
5995;SDS011;3026;53.612;7.278;2024-02-14T06:29:23;4.07;;;3.67;;
5995;SDS011;3026;53.612;7.278;2024-02-14T06:31:50;4.23;;;3.83;;
5995;SDS011;3026;53.612;7.278;2024-02-14T06:34:21;4.03;;;3.60;;
5995;SDS011;3026;53.612;7.278;2024-02-14T06:36:48;4.37;;;3.97;;
5995;SDS011;3026;53.612;7.278;2024-02-14T06:39:16;4.03;;;3.60;;
5995;SDS011;3026;53.612;7.278;2024-02-14T06:41:43;4.50;;;4.03;;
5995;SDS011;3026;53.612;7.278;2024-02-14T06:44:14;4.93;;;4.33;;
5995;SDS011;3026;53.612;7.278;2024-02-14T06:46:41;4.73;;;4.00;;
5995;SDS011;3026;53.612;7.278;2024-02-14T06:49:08;6.50;;;4.90;;
5995;SDS011;3026;53.612;7.278;2024-02-14T06:51:35;5.00;;;4.50;;
5995;SDS011;3026;53.612;7.278;2024-02-14T06:54:02;4.40;;;4.00;;
5995;SDS011;3026;53.612;7.278;2024-02-14T06:56:29;5.77;;;4.70;;
5995;SDS011;3026;53.612;7.278;2024-02-14T06:58:58;6.60;;;4.73;;
5995;SDS011;3026;53.612;7.278;2024-02-14T07:01:29;5.97;;;4.80;;
5995;SDS011;3026;53.612;7.278;2024-02-14T07:03:56;5.53;;;4.83;;
5995;SDS011;3026;53.612;7.278;2024-02-14T07:06:23;6.37;;;4.83;;
5995;SDS011;3026;53.612;7.278;2024-02-14T07:08:51;5.63;;;5.00;;
5995;SDS011;3026;53.612;7.278;2024-02-14T07:11:19;7.07;;;5.33;;
5995;SDS011;3026;53.612;7.278;2024-02-14T07:13:48;8.03;;;5.43;;
5995;SDS011;3026;53.612;7.278;2024-02-14T07:16:15;7.27;;;5.13;;
5995;SDS011;3026;53.612;7.278;2024-02-14T07:18:44;6.43;;;5.00;;
5995;SDS011;3026;53.612;7.278;2024-02-14T07:21:13;6.17;;;5.00;;
5995;SDS011;3026;53.612;7.278;2024-02-14T07:23:40;6.67;;;5.30;;
5995;SDS011;3026;53.612;7.278;2024-02-14T07:26:08;7.30;;;4.57;;
5995;SDS011;3026;53.612;7.278;2024-02-14T07:28:35;6.43;;;4.87;;
5995;SDS011;3026;53.612;7.278;2024-02-14T07:31:02;4.80;;;4.30;;
5995;SDS011;3026;53.612;7.278;2024-02-14T07:33:30;3.73;;;3.27;;
5995;SDS011;3026;53.612;7.278;2024-02-14T07:36:04;6.03;;;3.43;;
5995;SDS011;3026;53.612;7.278;2024-02-14T07:38:31;4.17;;;3.47;;
5995;SDS011;3026;53.612;7.278;2024-02-14T07:40:59;4.07;;;3.63;;
5995;SDS011;3026;53.612;7.278;2024-02-14T07:43:25;4.53;;;3.53;;
5995;SDS011;3026;53.612;7.278;2024-02-14T07:45:53;5.37;;;4.17;;
5995;SDS011;3026;53.612;7.278;2024-02-14T07:48:20;5.33;;;4.10;;
5995;SDS011;3026;53.612;7.278;2024-02-14T07:50:47;6.00;;;4.00;;
5995;SDS011;3026;53.612;7.278;2024-02-14T07:53:16;7.83;;;4.53;;
5995;SDS011;3026;53.612;7.278;2024-02-14T07:55:43;7.00;;;4.17;;
5995;SDS011;3026;53.612;7.278;2024-02-14T07:58:10;8.50;;;4.43;;
5995;SDS011;3026;53.612;7.278;2024-02-14T08:00:38;10.50;;;4.60;;
5995;SDS011;3026;53.612;7.278;2024-02-14T08:03:05;12.83;;;5.00;;
5995;SDS011;3026;53.612;7.278;2024-02-14T08:05:33;12.93;;;5.00;;
5995;SDS011;3026;53.612;7.278;2024-02-14T08:08:00;9.87;;;4.63;;
5995;SDS011;3026;53.612;7.278;2024-02-14T08:10:29;10.67;;;4.90;;
5995;SDS011;3026;53.612;7.278;2024-02-14T08:12:56;11.60;;;4.23;;
5995;SDS011;3026;53.612;7.278;2024-02-14T08:15:24;12.97;;;4.30;;
5995;SDS011;3026;53.612;7.278;2024-02-14T08:17:51;13.23;;;3.93;;
5995;SDS011;3026;53.612;7.278;2024-02-14T08:20:22;10.50;;;4.17;;
5995;SDS011;3026;53.612;7.278;2024-02-14T08:22:49;11.73;;;5.30;;
5995;SDS011;3026;53.612;7.278;2024-02-14T08:25:16;11.53;;;5.77;;
5995;SDS011;3026;53.612;7.278;2024-02-14T08:27:45;13.50;;;4.90;;
5995;SDS011;3026;53.612;7.278;2024-02-14T08:30:15;14.47;;;5.33;;
5995;SDS011;3026;53.612;7.278;2024-02-14T08:32:42;17.20;;;5.53;;
5995;SDS011;3026;53.612;7.278;2024-02-14T08:35:11;17.50;;;5.33;;
5995;SDS011;3026;53.612;7.278;2024-02-14T08:37:39;12.00;;;5.00;;
5995;SDS011;3026;53.612;7.278;2024-02-14T08:40:06;11.33;;;4.97;;
5995;SDS011;3026;53.612;7.278;2024-02-14T08:42:37;18.13;;;5.60;;
5995;SDS011;3026;53.612;7.278;2024-02-14T08:45:08;14.83;;;5.73;;
5995;SDS011;3026;53.612;7.278;2024-02-14T08:47:35;19.27;;;5.83;;
5995;SDS011;3026;53.612;7.278;2024-02-14T08:50:04;21.33;;;5.13;;
5995;SDS011;3026;53.612;7.278;2024-02-14T08:52:31;22.00;;;5.70;;
5995;SDS011;3026;53.612;7.278;2024-02-14T08:54:59;12.43;;;4.53;;
5995;SDS011;3026;53.612;7.278;2024-02-14T08:57:26;14.47;;;4.67;;
5995;SDS011;3026;53.612;7.278;2024-02-14T08:59:54;12.20;;;4.83;;
5995;SDS011;3026;53.612;7.278;2024-02-14T09:02:23;16.67;;;5.23;;
5995;SDS011;3026;53.612;7.278;2024-02-14T09:04:51;16.20;;;5.40;;
5995;SDS011;3026;53.612;7.278;2024-02-14T09:07:18;17.83;;;8.43;;
5995;SDS011;3026;53.612;7.278;2024-02-14T09:09:46;12.50;;;5.07;;
5995;SDS011;3026;53.612;7.278;2024-02-14T09:12:13;13.63;;;4.60;;
5995;SDS011;3026;53.612;7.278;2024-02-14T09:14:40;16.20;;;4.97;;
5995;SDS011;3026;53.612;7.278;2024-02-14T09:17:08;17.47;;;5.47;;
5995;SDS011;3026;53.612;7.278;2024-02-14T09:19:37;19.13;;;5.10;;
5995;SDS011;3026;53.612;7.278;2024-02-14T09:22:04;19.30;;;4.87;;
5995;SDS011;3026;53.612;7.278;2024-02-14T09:24:32;13.07;;;4.83;;
5995;SDS011;3026;53.612;7.278;2024-02-14T09:26:59;22.90;;;6.33;;
5995;SDS011;3026;53.612;7.278;2024-02-14T09:29:29;20.37;;;5.10;;
5995;SDS011;3026;53.612;7.278;2024-02-14T09:31:56;25.10;;;6.60;;
5995;SDS011;3026;53.612;7.278;2024-02-14T09:34:23;17.80;;;5.30;;
5995;SDS011;3026;53.612;7.278;2024-02-14T09:36:52;26.03;;;6.07;;
5995;SDS011;3026;53.612;7.278;2024-02-14T09:39:22;18.50;;;5.20;;
5995;SDS011;3026;53.612;7.278;2024-02-14T09:41:51;20.67;;;5.10;;
5995;SDS011;3026;53.612;7.278;2024-02-14T09:44:20;30.67;;;6.20;;
5995;SDS011;3026;53.612;7.278;2024-02-14T09:46:48;19.23;;;5.53;;
5995;SDS011;3026;53.612;7.278;2024-02-14T09:49:16;22.10;;;5.97;;
5995;SDS011;3026;53.612;7.278;2024-02-14T09:51:46;26.00;;;5.63;;
5995;SDS011;3026;53.612;7.278;2024-02-14T09:54:18;24.57;;;5.40;;
5995;SDS011;3026;53.612;7.278;2024-02-14T09:56:47;24.90;;;5.80;;
5995;SDS011;3026;53.612;7.278;2024-02-14T09:59:18;27.23;;;6.23;;
5995;SDS011;3026;53.612;7.278;2024-02-14T10:01:46;22.30;;;5.90;;
5995;SDS011;3026;53.612;7.278;2024-02-14T10:04:16;26.80;;;6.37;;
5995;SDS011;3026;53.612;7.278;2024-02-14T10:06:45;23.17;;;6.57;;
5995;SDS011;3026;53.612;7.278;2024-02-14T10:09:20;25.40;;;5.80;;
5995;SDS011;3026;53.612;7.278;2024-02-14T10:11:48;23.23;;;5.57;;
5995;SDS011;3026;53.612;7.278;2024-02-14T10:14:15;24.27;;;5.50;;
5995;SDS011;3026;53.612;7.278;2024-02-14T10:16:42;26.47;;;6.73;;
5995;SDS011;3026;53.612;7.278;2024-02-14T10:19:15;30.97;;;6.53;;
5995;SDS011;3026;53.612;7.278;2024-02-14T10:21:43;17.70;;;6.10;;
5995;SDS011;3026;53.612;7.278;2024-02-14T10:24:11;31.13;;;7.37;;
5995;SDS011;3026;53.612;7.278;2024-02-14T10:26:41;28.13;;;6.77;;
5995;SDS011;3026;53.612;7.278;2024-02-14T10:29:09;21.77;;;6.60;;
5995;SDS011;3026;53.612;7.278;2024-02-14T10:31:40;26.17;;;5.77;;
5995;SDS011;3026;53.612;7.278;2024-02-14T10:34:07;25.00;;;5.97;;
5995;SDS011;3026;53.612;7.278;2024-02-14T10:36:36;24.40;;;6.00;;
5995;SDS011;3026;53.612;7.278;2024-02-14T10:39:05;19.97;;;5.83;;
5995;SDS011;3026;53.612;7.278;2024-02-14T10:41:34;20.07;;;6.63;;
5995;SDS011;3026;53.612;7.278;2024-02-14T10:44:04;24.40;;;5.70;;
5995;SDS011;3026;53.612;7.278;2024-02-14T10:46:32;32.17;;;6.27;;
5995;SDS011;3026;53.612;7.278;2024-02-14T10:49:02;19.80;;;5.43;;
5995;SDS011;3026;53.612;7.278;2024-02-14T10:51:31;27.33;;;5.30;;
5995;SDS011;3026;53.612;7.278;2024-02-14T10:54:00;21.63;;;6.00;;
5995;SDS011;3026;53.612;7.278;2024-02-14T10:56:31;21.27;;;5.23;;
5995;SDS011;3026;53.612;7.278;2024-02-14T10:58:59;16.70;;;5.07;;
5995;SDS011;3026;53.612;7.278;2024-02-14T11:01:30;16.73;;;6.10;;
5995;SDS011;3026;53.612;7.278;2024-02-14T11:04:00;13.83;;;5.27;;
5995;SDS011;3026;53.612;7.278;2024-02-14T11:06:30;23.20;;;5.70;;
5995;SDS011;3026;53.612;7.278;2024-02-14T11:09:00;14.83;;;5.73;;
5995;SDS011;3026;53.612;7.278;2024-02-14T11:11:32;21.00;;;5.70;;
5995;SDS011;3026;53.612;7.278;2024-02-14T11:14:00;19.30;;;5.60;;
5995;SDS011;3026;53.612;7.278;2024-02-14T11:16:27;16.73;;;5.57;;
5995;SDS011;3026;53.612;7.278;2024-02-14T11:19:06;23.30;;;6.00;;
5995;SDS011;3026;53.612;7.278;2024-02-14T11:21:35;19.70;;;7.00;;
5995;SDS011;3026;53.612;7.278;2024-02-14T11:24:04;18.50;;;6.50;;
5995;SDS011;3026;53.612;7.278;2024-02-14T11:29:16;22.47;;;6.77;;
5995;SDS011;3026;53.612;7.278;2024-02-14T11:31:44;25.43;;;7.43;;
5995;SDS011;3026;53.612;7.278;2024-02-14T11:34:14;24.07;;;7.23;;
5995;SDS011;3026;53.612;7.278;2024-02-14T11:36:41;21.37;;;7.00;;
5995;SDS011;3026;53.612;7.278;2024-02-14T11:39:11;24.33;;;6.67;;
5995;SDS011;3026;53.612;7.278;2024-02-14T11:41:39;20.50;;;6.17;;
5995;SDS011;3026;53.612;7.278;2024-02-14T11:44:13;23.87;;;7.67;;
5995;SDS011;3026;53.612;7.278;2024-02-14T11:46:47;23.37;;;7.10;;
5995;SDS011;3026;53.612;7.278;2024-02-14T11:49:17;19.13;;;6.80;;
5995;SDS011;3026;53.612;7.278;2024-02-14T11:51:44;20.73;;;7.37;;
5995;SDS011;3026;53.612;7.278;2024-02-14T11:54:15;19.07;;;6.53;;
5995;SDS011;3026;53.612;7.278;2024-02-14T11:56:43;20.17;;;7.00;;
5995;SDS011;3026;53.612;7.278;2024-02-14T11:59:10;19.40;;;6.70;;
5995;SDS011;3026;53.612;7.278;2024-02-14T12:01:38;19.10;;;7.27;;
5995;SDS011;3026;53.612;7.278;2024-02-14T12:04:07;14.77;;;5.63;;
5995;SDS011;3026;53.612;7.278;2024-02-14T12:06:40;19.27;;;6.37;;
5995;SDS011;3026;53.612;7.278;2024-02-14T12:09:09;16.27;;;5.53;;
5995;SDS011;3026;53.612;7.278;2024-02-14T12:11:39;13.10;;;6.20;;
5995;SDS011;3026;53.612;7.278;2024-02-14T12:14:09;22.50;;;5.60;;
5995;SDS011;3026;53.612;7.278;2024-02-14T12:16:36;18.47;;;6.50;;
5995;SDS011;3026;53.612;7.278;2024-02-14T12:19:05;11.03;;;6.17;;
5995;SDS011;3026;53.612;7.278;2024-02-14T12:21:35;20.47;;;6.90;;
5995;SDS011;3026;53.612;7.278;2024-02-14T12:24:06;14.90;;;6.47;;
5995;SDS011;3026;53.612;7.278;2024-02-14T12:26:34;16.17;;;6.57;;
5995;SDS011;3026;53.612;7.278;2024-02-14T12:29:04;16.87;;;7.07;;
5995;SDS011;3026;53.612;7.278;2024-02-14T12:31:32;15.70;;;6.67;;
5995;SDS011;3026;53.612;7.278;2024-02-14T12:34:01;11.07;;;5.60;;
5995;SDS011;3026;53.612;7.278;2024-02-14T12:36:30;11.00;;;5.40;;
5995;SDS011;3026;53.612;7.278;2024-02-14T12:38:58;11.77;;;5.20;;
5995;SDS011;3026;53.612;7.278;2024-02-14T12:41:29;8.17;;;4.27;;
5995;SDS011;3026;53.612;7.278;2024-02-14T12:43:58;7.27;;;5.00;;
5995;SDS011;3026;53.612;7.278;2024-02-14T12:46:26;7.00;;;4.70;;
5995;SDS011;3026;53.612;7.278;2024-02-14T12:48:55;11.10;;;5.20;;
5995;SDS011;3026;53.612;7.278;2024-02-14T12:51:21;10.87;;;5.83;;
5995;SDS011;3026;53.612;7.278;2024-02-14T12:53:54;8.27;;;5.23;;
5995;SDS011;3026;53.612;7.278;2024-02-14T12:56:21;8.90;;;5.00;;
5995;SDS011;3026;53.612;7.278;2024-02-14T12:58:50;4.77;;;4.27;;
5995;SDS011;3026;53.612;7.278;2024-02-14T13:01:17;6.73;;;4.17;;
5995;SDS011;3026;53.612;7.278;2024-02-14T13:03:45;5.63;;;4.37;;
5995;SDS011;3026;53.612;7.278;2024-02-14T13:06:12;6.77;;;4.83;;
5995;SDS011;3026;53.612;7.278;2024-02-14T13:08:42;5.33;;;4.20;;
5995;SDS011;3026;53.612;7.278;2024-02-14T13:11:09;6.27;;;4.57;;
5995;SDS011;3026;53.612;7.278;2024-02-14T13:13:38;5.03;;;3.83;;
5995;SDS011;3026;53.612;7.278;2024-02-14T13:16:09;6.57;;;4.07;;
5995;SDS011;3026;53.612;7.278;2024-02-14T13:18:38;6.23;;;4.50;;
5995;SDS011;3026;53.612;7.278;2024-02-14T13:21:05;4.97;;;4.00;;
5995;SDS011;3026;53.612;7.278;2024-02-14T13:23:32;7.73;;;4.50;;
5995;SDS011;3026;53.612;7.278;2024-02-14T13:26:02;8.47;;;5.07;;
5995;SDS011;3026;53.612;7.278;2024-02-14T13:28:29;7.50;;;4.80;;
5995;SDS011;3026;53.612;7.278;2024-02-14T13:30:56;5.63;;;4.30;;
5995;SDS011;3026;53.612;7.278;2024-02-14T13:33:26;5.77;;;4.63;;
5995;SDS011;3026;53.612;7.278;2024-02-14T13:35:53;5.43;;;4.30;;
5995;SDS011;3026;53.612;7.278;2024-02-14T13:38:20;6.97;;;4.30;;
5995;SDS011;3026;53.612;7.278;2024-02-14T13:40:48;7.03;;;4.03;;
5995;SDS011;3026;53.612;7.278;2024-02-14T13:43:15;3.50;;;3.20;;
5995;SDS011;3026;53.612;7.278;2024-02-14T13:45:43;3.83;;;3.13;;
5995;SDS011;3026;53.612;7.278;2024-02-14T13:48:11;3.27;;;2.80;;
5995;SDS011;3026;53.612;7.278;2024-02-14T13:50:46;5.93;;;2.90;;
5995;SDS011;3026;53.612;7.278;2024-02-14T13:53:14;3.40;;;2.70;;
5995;SDS011;3026;53.612;7.278;2024-02-14T13:55:44;4.23;;;3.40;;
5995;SDS011;3026;53.612;7.278;2024-02-14T13:58:12;5.90;;;3.17;;
5995;SDS011;3026;53.612;7.278;2024-02-14T14:00:42;3.67;;;3.30;;
5995;SDS011;3026;53.612;7.278;2024-02-14T14:03:09;4.57;;;3.33;;
5995;SDS011;3026;53.612;7.278;2024-02-14T14:05:38;4.23;;;3.40;;
5995;SDS011;3026;53.612;7.278;2024-02-14T14:08:07;5.03;;;3.20;;
5995;SDS011;3026;53.612;7.278;2024-02-14T14:10:35;4.93;;;2.87;;
5995;SDS011;3026;53.612;7.278;2024-02-14T14:13:02;4.10;;;2.77;;
5995;SDS011;3026;53.612;7.278;2024-02-14T14:15:30;2.73;;;2.37;;
5995;SDS011;3026;53.612;7.278;2024-02-14T14:17:57;5.07;;;2.90;;
5995;SDS011;3026;53.612;7.278;2024-02-14T14:20:25;3.03;;;2.50;;
5995;SDS011;3026;53.612;7.278;2024-02-14T14:22:52;2.87;;;2.43;;
5995;SDS011;3026;53.612;7.278;2024-02-14T14:25:22;2.90;;;2.60;;
5995;SDS011;3026;53.612;7.278;2024-02-14T14:27:49;3.57;;;2.40;;
5995;SDS011;3026;53.612;7.278;2024-02-14T14:30:16;2.93;;;2.60;;
5995;SDS011;3026;53.612;7.278;2024-02-14T14:32:45;2.87;;;2.67;;
5995;SDS011;3026;53.612;7.278;2024-02-14T14:35:12;2.60;;;2.40;;
5995;SDS011;3026;53.612;7.278;2024-02-14T14:37:40;2.53;;;2.20;;
5995;SDS011;3026;53.612;7.278;2024-02-14T14:40:07;2.60;;;2.40;;
5995;SDS011;3026;53.612;7.278;2024-02-14T14:42:41;2.60;;;2.40;;
5995;SDS011;3026;53.612;7.278;2024-02-14T14:45:10;3.47;;;2.80;;
5995;SDS011;3026;53.612;7.278;2024-02-14T14:47:37;2.60;;;2.40;;
5995;SDS011;3026;53.612;7.278;2024-02-14T14:50:04;3.93;;;2.80;;
5995;SDS011;3026;53.612;7.278;2024-02-14T14:52:33;3.97;;;2.80;;
5995;SDS011;3026;53.612;7.278;2024-02-14T14:55:00;2.97;;;2.70;;
5995;SDS011;3026;53.612;7.278;2024-02-14T14:57:29;4.03;;;3.30;;
5995;SDS011;3026;53.612;7.278;2024-02-14T15:00:00;3.60;;;2.90;;
5995;SDS011;3026;53.612;7.278;2024-02-14T15:02:33;3.30;;;3.00;;
5995;SDS011;3026;53.612;7.278;2024-02-14T15:05:01;2.70;;;2.50;;
5995;SDS011;3026;53.612;7.278;2024-02-14T15:07:28;3.50;;;3.20;;
5995;SDS011;3026;53.612;7.278;2024-02-14T15:09:55;5.10;;;3.60;;
5995;SDS011;3026;53.612;7.278;2024-02-14T15:12:22;4.50;;;4.10;;
5995;SDS011;3026;53.612;7.278;2024-02-14T15:14:52;3.73;;;3.43;;
5995;SDS011;3026;53.612;7.278;2024-02-14T15:17:25;5.97;;;3.97;;
5995;SDS011;3026;53.612;7.278;2024-02-14T15:19:53;4.63;;;4.00;;